Northsea Beta — 9HA2594 — position and weather

sailwx.info

Track history (hours):
 
Tides and Currents Weather Stations Pressure Air Temp Water Temp Dewpoint Dewpoint Depression Visibility Wind Speed Wind Dir Waves Ship Positions

Northsea Beta

Last reported at 2018-Jan-22 02:30 UTC. Time now 2018-Jan-22 02:46 UTC.
Position N 51°24' E 003°11'.

Length 110 m; draft 6.1 m.

Type: Tanker. MMSI: 248970000.

Date/timePositionNaut miles runAvg speedWind from/ knotsBaromVisibWave heightAir tempDewpointWater temp
2018-Jan-22 02:30N 51°24' E 003°11'713.8
2018-Jan-22 02:00N 51°24' E 003°00'712.6
2018-Jan-22 01:27N 51°22' E 002°50'511.5
2018-Jan-22 01:00N 51°22' E 002°41'611.6
2018-Jan-22 00:30N 51°22' E 002°32'510.3
2018-Jan-22 00:00N 51°27' E 002°33'252 8.8
2018-Jan-20 19:21N 54°03' E 007°60'510.9
2018-Jan-20 18:56N 54°01' E 008°07'511.2
2018-Jan-20 18:30N 54°01' E 008°15'713.9
2018-Jan-20 18:00N 53°59' E 008°26'714.7
2018-Jan-20 17:30N 53°57' E 008°38'714.3
2018-Jan-20 17:00N 53°51' E 008°45'612.2
2018-Jan-20 16:30N 53°51' E 008°56'611.2
2018-Jan-20 16:00N 53°52' E 009°05'3 5.4
2018-Jan-20 15:30N 53°54' E 009°09'0 0.0
2018-Jan-20 15:00N 53°54' E 009°09'1 1.2
2018-Jan-20 14:30N 53°54' E 009°10'4 7.5
2018-Jan-20 14:00N 53°57' E 009°14'4 8.3
2018-Jan-20 13:30N 54°00' E 009°18'4 7.3
2018-Jan-20 12:54N 54°05' E 009°19'3 8.2
2018-Jan-20 12:30N 54°08' E 009°20'4 8.1
2018-Jan-20 12:01N 54°10' E 009°26'4 8.5
2018-Jan-20 11:30N 54°12' E 009°32'4 8.0
2018-Jan-20 11:01N 54°15' E 009°37'4 7.4
2018-Jan-20 10:31N 54°18' E 009°41'4 7.9
2018-Jan-20 10:00N 54°21' E 009°45'28 6.1
2018-Jan-20 05:22N 54°33' E 010°29'3 9.0
2018-Jan-20 05:00N 54°35' E 010°34'5 9.2
2018-Jan-20 04:31N 54°35' E 010°42'5 9.4
2018-Jan-20 04:01N 54°35' E 010°50'5 8.7
2018-Jan-20 03:27N 54°36' E 010°59'4 8.9
2018-Jan-20 03:00N 54°36' E 011°05'5 9.3
2018-Jan-20 02:30N 54°35' E 011°13'5 9.8
2018-Jan-20 02:01N 54°33' E 011°21'510.4
2018-Jan-20 01:31N 54°31' E 011°29'510.0
2018-Jan-20 01:01N 54°29' E 011°37'5 9.7
2018-Jan-20 00:30N 54°27' E 011°44'5 9.5
2018-Jan-20 00:00N 54°27' E 011°53'5 9.3
2018-Jan-19 23:30N 54°26' E 012°01'222 9.6
2018-Jan-19 00:31N 54°59' E 018°20'110.0
2018-Jan-19 00:27N 54°59' E 018°21'410.1
2018-Jan-19 00:00N 54°60' E 018°29'510.4
2018-Jan-18 23:30N 55°00' E 018°38'510.5
2018-Jan-18 23:00N 54°59' E 018°47'610.9
2018-Jan-18 22:30N 54°58' E 018°56'510.2
2018-Jan-18 21:58N 54°55' E 019°04'510.9
2018-Jan-18 21:31N 54°52' E 019°12'  
2018-Jan-12 14:59N 59°19' E 018°10'0 0.0
2018-Jan-12 14:29N 59°19' E 018°10'0 0.0
2018-Jan-12 13:56N 59°19' E 018°10'0 0.0
2018-Jan-12 13:29N 59°19' E 018°10'0 0.0
2018-Jan-12 12:59N 59°19' E 018°10'0 0.0
2018-Jan-12 12:23N 59°19' E 018°10'0 0.0
2018-Jan-12 11:56N 59°19' E 018°10'0 0.0
2018-Jan-12 11:24N 59°19' E 018°10'1 1.5
2018-Jan-12 11:00N 59°20' E 018°11'4 8.8
2018-Jan-12 10:30N 59°23' E 018°17'5 9.6
2018-Jan-12 10:00N 59°22' E 018°27'5 9.4
2018-Jan-12 09:30N 59°26' E 018°23'5 9.8
2018-Jan-12 08:58N 59°24' E 018°32'510.5
2018-Jan-12 08:30N 59°23' E 018°41'610.5
2018-Jan-12 07:59N 59°19' E 018°49'17 8.3
2018-Jan-12 05:59N 59°09' E 019°16'6 6.2
2018-Jan-12 04:59N 59°03' E 019°16'6 8.4
2018-Jan-12 04:16N 58°57' E 019°15'4 9.3
2018-Jan-12 03:51N 58°54' E 019°09'  
Track history (hours):
 
Tides and Currents Weather Stations Pressure Air Temp Water Temp Dewpoint Dewpoint Depression Visibility Wind Speed Wind Dir Waves Ship Positions

Northsea Beta

Last reported at 2018-Jan-22 02:30 UTC. Time now 2018-Jan-22 02:46 UTC.
Position N 51°24' E 003°11'.

Length 110 m; draft 6.1 m.

Type: Tanker. MMSI: 248970000.

Date/timePositionNaut miles runAvg speedWind from/ knotsBaromVisibWave heightAir tempDewpointWater temp
2018-Jan-22 02:30N 51°24' E 003°11'713.8
2018-Jan-22 02:00N 51°24' E 003°00'712.6
2018-Jan-22 01:27N 51°22' E 002°50'511.5
2018-Jan-22 01:00N 51°22' E 002°41'611.6
2018-Jan-22 00:30N 51°22' E 002°32'510.3
2018-Jan-22 00:00N 51°27' E 002°33'252 8.8
2018-Jan-20 19:21N 54°03' E 007°60'510.9
2018-Jan-20 18:56N 54°01' E 008°07'511.2
2018-Jan-20 18:30N 54°01' E 008°15'713.9
2018-Jan-20 18:00N 53°59' E 008°26'714.7
2018-Jan-20 17:30N 53°57' E 008°38'714.3
2018-Jan-20 17:00N 53°51' E 008°45'612.2
2018-Jan-20 16:30N 53°51' E 008°56'611.2
2018-Jan-20 16:00N 53°52' E 009°05'3 5.4
2018-Jan-20 15:30N 53°54' E 009°09'0 0.0
2018-Jan-20 15:00N 53°54' E 009°09'1 1.2
2018-Jan-20 14:30N 53°54' E 009°10'4 7.5
2018-Jan-20 14:00N 53°57' E 009°14'4 8.3
2018-Jan-20 13:30N 54°00' E 009°18'4 7.3
2018-Jan-20 12:54N 54°05' E 009°19'3 8.2
2018-Jan-20 12:30N 54°08' E 009°20'4 8.1
2018-Jan-20 12:01N 54°10' E 009°26'4 8.5
2018-Jan-20 11:30N 54°12' E 009°32'4 8.0
2018-Jan-20 11:01N 54°15' E 009°37'4 7.4
2018-Jan-20 10:31N 54°18' E 009°41'4 7.9
2018-Jan-20 10:00N 54°21' E 009°45'28 6.1
2018-Jan-20 05:22N 54°33' E 010°29'3 9.0
2018-Jan-20 05:00N 54°35' E 010°34'5 9.2
2018-Jan-20 04:31N 54°35' E 010°42'5 9.4
2018-Jan-20 04:01N 54°35' E 010°50'5 8.7
2018-Jan-20 03:27N 54°36' E 010°59'4 8.9
2018-Jan-20 03:00N 54°36' E 011°05'5 9.3
2018-Jan-20 02:30N 54°35' E 011°13'5 9.8
2018-Jan-20 02:01N 54°33' E 011°21'510.4
2018-Jan-20 01:31N 54°31' E 011°29'510.0
2018-Jan-20 01:01N 54°29' E 011°37'5 9.7
2018-Jan-20 00:30N 54°27' E 011°44'5 9.5
2018-Jan-20 00:00N 54°27' E 011°53'5 9.3
2018-Jan-19 23:30N 54°26' E 012°01'222 9.6
2018-Jan-19 00:31N 54°59' E 018°20'110.0
2018-Jan-19 00:27N 54°59' E 018°21'410.1
2018-Jan-19 00:00N 54°60' E 018°29'510.4
2018-Jan-18 23:30N 55°00' E 018°38'510.5
2018-Jan-18 23:00N 54°59' E 018°47'610.9
2018-Jan-18 22:30N 54°58' E 018°56'510.2
2018-Jan-18 21:58N 54°55' E 019°04'510.9
2018-Jan-18 21:31N 54°52' E 019°12'  
2018-Jan-12 14:59N 59°19' E 018°10'0 0.0
2018-Jan-12 14:29N 59°19' E 018°10'0 0.0
2018-Jan-12 13:56N 59°19' E 018°10'0 0.0
2018-Jan-12 13:29N 59°19' E 018°10'0 0.0
2018-Jan-12 12:59N 59°19' E 018°10'0 0.0
2018-Jan-12 12:23N 59°19' E 018°10'0 0.0
2018-Jan-12 11:56N 59°19' E 018°10'0 0.0
2018-Jan-12 11:24N 59°19' E 018°10'1 1.5
2018-Jan-12 11:00N 59°20' E 018°11'4 8.8
2018-Jan-12 10:30N 59°23' E 018°17'5 9.6
2018-Jan-12 10:00N 59°22' E 018°27'5 9.4
2018-Jan-12 09:30N 59°26' E 018°23'5 9.8
2018-Jan-12 08:58N 59°24' E 018°32'510.5
2018-Jan-12 08:30N 59°23' E 018°41'610.5
2018-Jan-12 07:59N 59°19' E 018°49'17 8.3
2018-Jan-12 05:59N 59°09' E 019°16'6 6.2
2018-Jan-12 04:59N 59°03' E 019°16'6 8.4
2018-Jan-12 04:16N 58°57' E 019°15'4 9.3
2018-Jan-12 03:51N 58°54' E 019°09'  

Dump ship's entire track history